sensor_id;sensor_type;location;lat;lon;timestamp;P1;durP1;ratioP1;P2;durP2;ratioP2
56181;SDS011;51963;46.052;14.544;2023-04-01T00:00:27;1.58;;;1.15;;
56181;SDS011;51963;46.052;14.544;2023-04-01T00:02:53;2.17;;;1.00;;
56181;SDS011;51963;46.052;14.544;2023-04-01T00:05:18;2.17;;;1.10;;
56181;SDS011;51963;46.052;14.544;2023-04-01T00:07:45;2.35;;;1.00;;
56181;SDS011;51963;46.052;14.544;2023-04-01T00:10:11;1.52;;;0.70;;
56181;SDS011;51963;46.052;14.544;2023-04-01T00:12:38;1.67;;;1.02;;
56181;SDS011;51963;46.052;14.544;2023-04-01T00:15:05;2.40;;;0.80;;
56181;SDS011;51963;46.052;14.544;2023-04-01T00:17:32;1.58;;;1.00;;
56181;SDS011;51963;46.052;14.544;2023-04-01T00:19:58;2.25;;;0.73;;
56181;SDS011;51963;46.052;14.544;2023-04-01T00:22:24;1.17;;;0.70;;
56181;SDS011;51963;46.052;14.544;2023-04-01T00:24:50;3.70;;;0.95;;
56181;SDS011;51963;46.052;14.544;2023-04-01T00:27:15;2.47;;;0.80;;
56181;SDS011;51963;46.052;14.544;2023-04-01T00:29:42;1.35;;;0.85;;
56181;SDS011;51963;46.052;14.544;2023-04-01T00:32:08;2.28;;;0.85;;
56181;SDS011;51963;46.052;14.544;2023-04-01T00:34:34;1.33;;;0.80;;
56181;SDS011;51963;46.052;14.544;2023-04-01T00:36:59;1.98;;;0.80;;
56181;SDS011;51963;46.052;14.544;2023-04-01T00:39:25;3.42;;;0.80;;
56181;SDS011;51963;46.052;14.544;2023-04-01T00:41:54;1.92;;;1.17;;
56181;SDS011;51963;46.052;14.544;2023-04-01T00:44:22;7.38;;;1.20;;
56181;SDS011;51963;46.052;14.544;2023-04-01T00:46:54;3.25;;;1.27;;
56181;SDS011;51963;46.052;14.544;2023-04-01T00:49:22;2.72;;;1.23;;
56181;SDS011;51963;46.052;14.544;2023-04-01T00:51:52;1.83;;;1.10;;
56181;SDS011;51963;46.052;14.544;2023-04-01T00:54:21;1.75;;;1.00;;
56181;SDS011;51963;46.052;14.544;2023-04-01T00:56:50;2.97;;;1.30;;
56181;SDS011;51963;46.052;14.544;2023-04-01T00:59:26;2.28;;;1.00;;
56181;SDS011;51963;46.052;14.544;2023-04-01T01:01:55;3.17;;;1.10;;
56181;SDS011;51963;46.052;14.544;2023-04-01T01:04:25;2.30;;;1.42;;
56181;SDS011;51963;46.052;14.544;2023-04-01T01:20:48;3.33;;;1.98;;
56181;SDS011;51963;46.052;14.544;2023-04-01T01:23:41;2.42;;;1.50;;
56181;SDS011;51963;46.052;14.544;2023-04-01T01:37:53;2.88;;;1.90;;
56181;SDS011;51963;46.052;14.544;2023-04-01T01:40:25;3.97;;;2.50;;
56181;SDS011;51963;46.052;14.544;2023-04-01T01:42:53;3.50;;;2.20;;
56181;SDS011;51963;46.052;14.544;2023-04-01T01:45:23;4.70;;;2.67;;
56181;SDS011;51963;46.052;14.544;2023-04-01T01:47:51;3.78;;;1.70;;
56181;SDS011;51963;46.052;14.544;2023-04-01T01:50:18;2.75;;;1.35;;
56181;SDS011;51963;46.052;14.544;2023-04-01T01:52:45;1.77;;;0.95;;
56181;SDS011;51963;46.052;14.544;2023-04-01T01:55:26;2.17;;;1.00;;
56181;SDS011;51963;46.052;14.544;2023-04-01T02:00:46;1.17;;;0.70;;
56181;SDS011;51963;46.052;14.544;2023-04-01T02:03:17;2.65;;;0.80;;
56181;SDS011;51963;46.052;14.544;2023-04-01T02:05:46;0.80;;;0.50;;
56181;SDS011;51963;46.052;14.544;2023-04-01T02:08:18;2.93;;;0.80;;
56181;SDS011;51963;46.052;14.544;2023-04-01T02:10:55;0.80;;;0.60;;
56181;SDS011;51963;46.052;14.544;2023-04-01T02:14:15;0.88;;;0.65;;
56181;SDS011;51963;46.052;14.544;2023-04-01T02:17:05;1.20;;;0.82;;
56181;SDS011;51963;46.052;14.544;2023-04-01T02:19:22;1.25;;;0.68;;
56181;SDS011;51963;46.052;14.544;2023-04-01T02:21:54;1.20;;;0.80;;
56181;SDS011;51963;46.052;14.544;2023-04-01T02:24:24;1.38;;;0.73;;
56181;SDS011;51963;46.052;14.544;2023-04-01T02:29:19;1.25;;;0.90;;
56181;SDS011;51963;46.052;14.544;2023-04-01T02:34:14;1.27;;;0.65;;
56181;SDS011;51963;46.052;14.544;2023-04-01T02:36:40;2.42;;;0.90;;
56181;SDS011;51963;46.052;14.544;2023-04-01T02:39:07;1.70;;;1.20;;
56181;SDS011;51963;46.052;14.544;2023-04-01T02:41:38;1.63;;;1.00;;
56181;SDS011;51963;46.052;14.544;2023-04-01T02:44:09;2.75;;;1.48;;
56181;SDS011;51963;46.052;14.544;2023-04-01T02:46:36;2.03;;;1.27;;
56181;SDS011;51963;46.052;14.544;2023-04-01T02:49:03;2.47;;;1.40;;
56181;SDS011;51963;46.052;14.544;2023-04-01T02:51:30;4.00;;;1.50;;
56181;SDS011;51963;46.052;14.544;2023-04-01T02:53:56;2.53;;;1.60;;
56181;SDS011;51963;46.052;14.544;2023-04-01T02:56:21;2.33;;;1.30;;
56181;SDS011;51963;46.052;14.544;2023-04-01T02:58:47;3.10;;;1.67;;
56181;SDS011;51963;46.052;14.544;2023-04-01T03:01:13;1.88;;;1.15;;
56181;SDS011;51963;46.052;14.544;2023-04-01T03:03:39;2.83;;;1.58;;
56181;SDS011;51963;46.052;14.544;2023-04-01T03:06:08;1.40;;;1.08;;
56181;SDS011;51963;46.052;14.544;2023-04-01T03:08:36;2.25;;;1.20;;
56181;SDS011;51963;46.052;14.544;2023-04-01T03:11:02;2.13;;;1.27;;
56181;SDS011;51963;46.052;14.544;2023-04-01T03:13:32;2.07;;;1.33;;
56181;SDS011;51963;46.052;14.544;2023-04-01T03:15:58;2.75;;;1.30;;
56181;SDS011;51963;46.052;14.544;2023-04-01T03:18:24;1.30;;;0.98;;
56181;SDS011;51963;46.052;14.544;2023-04-01T03:20:50;1.75;;;0.98;;
56181;SDS011;51963;46.052;14.544;2023-04-01T03:23:16;2.10;;;1.10;;
56181;SDS011;51963;46.052;14.544;2023-04-01T03:25:49;1.67;;;1.13;;
56181;SDS011;51963;46.052;14.544;2023-04-01T03:28:15;4.18;;;1.60;;
56181;SDS011;51963;46.052;14.544;2023-04-01T03:30:41;3.40;;;1.83;;
56181;SDS011;51963;46.052;14.544;2023-04-01T03:33:08;2.63;;;1.70;;
56181;SDS011;51963;46.052;14.544;2023-04-01T03:35:34;4.05;;;1.98;;
56181;SDS011;51963;46.052;14.544;2023-04-01T03:38:01;3.92;;;2.03;;
56181;SDS011;51963;46.052;14.544;2023-04-01T03:40:27;3.38;;;2.13;;
56181;SDS011;51963;46.052;14.544;2023-04-01T03:42:53;3.60;;;2.20;;
56181;SDS011;51963;46.052;14.544;2023-04-01T03:45:19;2.78;;;1.88;;
56181;SDS011;51963;46.052;14.544;2023-04-01T03:47:45;4.15;;;2.85;;
56181;SDS011;51963;46.052;14.544;2023-04-01T03:50:10;5.30;;;3.10;;
56181;SDS011;51963;46.052;14.544;2023-04-01T03:52:36;4.63;;;3.20;;
56181;SDS011;51963;46.052;14.544;2023-04-01T03:55:02;4.50;;;2.88;;
56181;SDS011;51963;46.052;14.544;2023-04-01T03:57:30;5.68;;;3.00;;
56181;SDS011;51963;46.052;14.544;2023-04-01T04:00:01;4.13;;;2.40;;
56181;SDS011;51963;46.052;14.544;2023-04-01T04:02:27;4.57;;;2.60;;
56181;SDS011;51963;46.052;14.544;2023-04-01T04:04:53;5.25;;;2.70;;
56181;SDS011;51963;46.052;14.544;2023-04-01T04:07:20;5.22;;;2.60;;
56181;SDS011;51963;46.052;14.544;2023-04-01T04:10:06;5.28;;;2.78;;
56181;SDS011;51963;46.052;14.544;2023-04-01T04:12:32;6.32;;;3.22;;
56181;SDS011;51963;46.052;14.544;2023-04-01T04:14:58;8.43;;;3.97;;
56181;SDS011;51963;46.052;14.544;2023-04-01T04:17:24;9.40;;;4.72;;
56181;SDS011;51963;46.052;14.544;2023-04-01T04:19:50;11.43;;;4.63;;
56181;SDS011;51963;46.052;14.544;2023-04-01T04:22:16;10.57;;;5.18;;
56181;SDS011;51963;46.052;14.544;2023-04-01T04:24:42;7.32;;;4.28;;
56181;SDS011;51963;46.052;14.544;2023-04-01T04:27:11;6.72;;;3.88;;
56181;SDS011;51963;46.052;14.544;2023-04-01T04:29:45;7.88;;;4.18;;
56181;SDS011;51963;46.052;14.544;2023-04-01T04:32:11;7.15;;;4.05;;
56181;SDS011;51963;46.052;14.544;2023-04-01T04:34:37;8.05;;;4.22;;
56181;SDS011;51963;46.052;14.544;2023-04-01T04:37:03;6.93;;;4.38;;
56181;SDS011;51963;46.052;14.544;2023-04-01T04:39:33;6.32;;;3.90;;
56181;SDS011;51963;46.052;14.544;2023-04-01T04:41:58;9.98;;;4.90;;
56181;SDS011;51963;46.052;14.544;2023-04-01T04:44:24;9.82;;;5.80;;
56181;SDS011;51963;46.052;14.544;2023-04-01T04:46:50;12.63;;;6.38;;
56181;SDS011;51963;46.052;14.544;2023-04-01T04:49:16;15.38;;;7.00;;
56181;SDS011;51963;46.052;14.544;2023-04-01T04:51:42;12.93;;;6.78;;
56181;SDS011;51963;46.052;14.544;2023-04-01T04:54:08;12.55;;;6.45;;
56181;SDS011;51963;46.052;14.544;2023-04-01T04:57:06;12.60;;;5.95;;
56181;SDS011;51963;46.052;14.544;2023-04-01T04:59:38;12.95;;;7.35;;
56181;SDS011;51963;46.052;14.544;2023-04-01T05:02:13;10.68;;;6.15;;
56181;SDS011;51963;46.052;14.544;2023-04-01T05:04:39;11.00;;;6.50;;
56181;SDS011;51963;46.052;14.544;2023-04-01T05:07:08;9.95;;;5.68;;
56181;SDS011;51963;46.052;14.544;2023-04-01T05:09:34;9.90;;;5.20;;
56181;SDS011;51963;46.052;14.544;2023-04-01T05:11:59;7.45;;;4.97;;
56181;SDS011;51963;46.052;14.544;2023-04-01T05:14:30;11.40;;;5.65;;
56181;SDS011;51963;46.052;14.544;2023-04-01T05:17:08;13.20;;;7.28;;
56181;SDS011;51963;46.052;14.544;2023-04-01T05:19:35;10.98;;;6.97;;
56181;SDS011;51963;46.052;14.544;2023-04-01T05:22:00;11.48;;;6.30;;
56181;SDS011;51963;46.052;14.544;2023-04-01T05:24:26;11.80;;;6.47;;
56181;SDS011;51963;46.052;14.544;2023-04-01T05:26:52;10.40;;;6.07;;
56181;SDS011;51963;46.052;14.544;2023-04-01T05:29:18;10.82;;;6.43;;
56181;SDS011;51963;46.052;14.544;2023-04-01T05:31:47;12.13;;;7.00;;
56181;SDS011;51963;46.052;14.544;2023-04-01T05:34:13;13.82;;;7.93;;
56181;SDS011;51963;46.052;14.544;2023-04-01T05:36:39;18.48;;;10.13;;
56181;SDS011;51963;46.052;14.544;2023-04-01T05:39:05;19.65;;;9.52;;
56181;SDS011;51963;46.052;14.544;2023-04-01T05:41:30;22.20;;;10.27;;
56181;SDS011;51963;46.052;14.544;2023-04-01T05:43:56;18.08;;;9.93;;
56181;SDS011;51963;46.052;14.544;2023-04-01T05:46:42;23.23;;;11.10;;
56181;SDS011;51963;46.052;14.544;2023-04-01T05:49:15;24.42;;;11.65;;
56181;SDS011;51963;46.052;14.544;2023-04-01T05:51:41;20.17;;;9.88;;
56181;SDS011;51963;46.052;14.544;2023-04-01T05:54:07;19.40;;;10.55;;
56181;SDS011;51963;46.052;14.544;2023-04-01T05:56:33;18.20;;;9.40;;
56181;SDS011;51963;46.052;14.544;2023-04-01T05:58:59;16.58;;;10.20;;
56181;SDS011;51963;46.052;14.544;2023-04-01T06:01:25;25.98;;;12.30;;
56181;SDS011;51963;46.052;14.544;2023-04-01T06:03:50;27.17;;;12.30;;
56181;SDS011;51963;46.052;14.544;2023-04-01T06:06:22;31.50;;;13.20;;
56181;SDS011;51963;46.052;14.544;2023-04-01T06:08:51;28.80;;;13.35;;
56181;SDS011;51963;46.052;14.544;2023-04-01T06:20:12;34.67;;;13.73;;
56181;SDS011;51963;46.052;14.544;2023-04-01T06:25:42;27.25;;;10.80;;
56181;SDS011;51963;46.052;14.544;2023-04-01T06:50:43;16.10;;;7.32;;
56181;SDS011;51963;46.052;14.544;2023-04-01T06:53:43;17.23;;;7.78;;
56181;SDS011;51963;46.052;14.544;2023-04-01T06:56:53;21.38;;;8.50;;
56181;SDS011;51963;46.052;14.544;2023-04-01T06:59:28;18.98;;;8.40;;
56181;SDS011;51963;46.052;14.544;2023-04-01T07:04:59;19.33;;;8.35;;
56181;SDS011;51963;46.052;14.544;2023-04-01T07:07:37;19.38;;;8.15;;
56181;SDS011;51963;46.052;14.544;2023-04-01T07:10:13;18.33;;;8.27;;
56181;SDS011;51963;46.052;14.544;2023-04-01T07:13:15;18.50;;;7.60;;
56181;SDS011;51963;46.052;14.544;2023-04-01T07:15:59;19.90;;;8.90;;
56181;SDS011;51963;46.052;14.544;2023-04-01T07:18:49;18.05;;;8.43;;
56181;SDS011;51963;46.052;14.544;2023-04-01T07:21:22;11.88;;;6.40;;
56181;SDS011;51963;46.052;14.544;2023-04-01T07:23:54;14.35;;;6.57;;
56181;SDS011;51963;46.052;14.544;2023-04-01T07:26:36;18.65;;;8.05;;
56181;SDS011;51963;46.052;14.544;2023-04-01T07:29:12;16.25;;;7.25;;
56181;SDS011;51963;46.052;14.544;2023-04-01T07:53:57;9.18;;;4.05;;
56181;SDS011;51963;46.052;14.544;2023-04-01T07:59:14;4.95;;;3.03;;
56181;SDS011;51963;46.052;14.544;2023-04-01T08:05:00;5.47;;;3.53;;
56181;SDS011;51963;46.052;14.544;2023-04-01T08:07:44;7.43;;;4.47;;
56181;SDS011;51963;46.052;14.544;2023-04-01T08:10:55;5.78;;;3.58;;
56181;SDS011;51963;46.052;14.544;2023-04-01T08:14:20;5.93;;;3.42;;
56181;SDS011;51963;46.052;14.544;2023-04-01T08:17:02;4.03;;;2.90;;
56181;SDS011;51963;46.052;14.544;2023-04-01T08:22:57;3.03;;;1.88;;
56181;SDS011;51963;46.052;14.544;2023-04-01T08:25:34;4.05;;;2.30;;
56181;SDS011;51963;46.052;14.544;2023-04-01T08:33:15;3.15;;;2.53;;
56181;SDS011;51963;46.052;14.544;2023-04-01T08:38:30;3.30;;;2.60;;
56181;SDS011;51963;46.052;14.544;2023-04-01T09:00:43;8.27;;;5.15;;
56181;SDS011;51963;46.052;14.544;2023-04-01T09:06:35;7.78;;;5.70;;
56181;SDS011;51963;46.052;14.544;2023-04-01T09:09:27;9.15;;;6.07;;
56181;SDS011;51963;46.052;14.544;2023-04-01T09:35:29;8.20;;;6.20;;
56181;SDS011;51963;46.052;14.544;2023-04-01T09:54:12;7.00;;;5.28;;
56181;SDS011;51963;46.052;14.544;2023-04-01T10:05:59;9.52;;;6.43;;
56181;SDS011;51963;46.052;14.544;2023-04-01T10:16:44;9.60;;;6.03;;
56181;SDS011;51963;46.052;14.544;2023-04-01T10:19:43;9.05;;;5.38;;
56181;SDS011;51963;46.052;14.544;2023-04-01T11:16:11;7.15;;;5.00;;
56181;SDS011;51963;46.052;14.544;2023-04-01T11:41:53;4.20;;;3.33;;
56181;SDS011;51963;46.052;14.544;2023-04-01T11:44:53;3.53;;;3.13;;
56181;SDS011;51963;46.052;14.544;2023-04-01T11:47:45;4.55;;;3.28;;
56181;SDS011;51963;46.052;14.544;2023-04-01T11:54:10;3.15;;;2.85;;
56181;SDS011;51963;46.052;14.544;2023-04-01T12:05:38;4.40;;;2.80;;
56181;SDS011;51963;46.052;14.544;2023-04-01T12:08:04;3.58;;;2.42;;
56181;SDS011;51963;46.052;14.544;2023-04-01T12:10:42;2.25;;;2.05;;
56181;SDS011;51963;46.052;14.544;2023-04-01T12:18:51;3.35;;;1.88;;
56181;SDS011;51963;46.052;14.544;2023-04-01T12:26:33;2.13;;;1.40;;
56181;SDS011;51963;46.052;14.544;2023-04-01T12:29:36;3.78;;;1.60;;
56181;SDS011;51963;46.052;14.544;2023-04-01T12:32:17;2.78;;;1.75;;
56181;SDS011;51963;46.052;14.544;2023-04-01T12:40:20;1.30;;;1.10;;
56181;SDS011;51963;46.052;14.544;2023-04-01T12:48:37;1.70;;;1.30;;
56181;SDS011;51963;46.052;14.544;2023-04-01T12:54:14;2.72;;;1.00;;
56181;SDS011;51963;46.052;14.544;2023-04-01T13:08:27;3.05;;;1.10;;
56181;SDS011;51963;46.052;14.544;2023-04-01T13:16:22;1.45;;;0.63;;
56181;SDS011;51963;46.052;14.544;2023-04-01T13:19:08;1.95;;;0.88;;
56181;SDS011;51963;46.052;14.544;2023-04-01T13:21:42;2.22;;;0.80;;
56181;SDS011;51963;46.052;14.544;2023-04-01T13:24:31;3.35;;;0.80;;
56181;SDS011;51963;46.052;14.544;2023-04-01T13:32:44;1.95;;;0.82;;
56181;SDS011;51963;46.052;14.544;2023-04-01T13:40:54;2.55;;;0.80;;
56181;SDS011;51963;46.052;14.544;2023-04-01T13:43:34;1.30;;;1.00;;
56181;SDS011;51963;46.052;14.544;2023-04-01T13:46:22;2.67;;;1.30;;
56181;SDS011;51963;46.052;14.544;2023-04-01T13:54:57;2.03;;;0.80;;
56181;SDS011;51963;46.052;14.544;2023-04-01T14:00:25;2.47;;;0.90;;
56181;SDS011;51963;46.052;14.544;2023-04-01T14:06:19;1.33;;;0.67;;
56181;SDS011;51963;46.052;14.544;2023-04-01T14:11:53;1.90;;;1.10;;
56181;SDS011;51963;46.052;14.544;2023-04-01T14:25:20;1.95;;;0.70;;
56181;SDS011;51963;46.052;14.544;2023-04-01T14:27:57;2.83;;;1.10;;
56181;SDS011;51963;46.052;14.544;2023-04-01T14:33:34;1.33;;;0.93;;
56181;SDS011;51963;46.052;14.544;2023-04-01T14:52:57;4.32;;;1.50;;
56181;SDS011;51963;46.052;14.544;2023-04-01T15:00:41;5.10;;;1.30;;
56181;SDS011;51963;46.052;14.544;2023-04-01T15:09:02;2.97;;;0.82;;
56181;SDS011;51963;46.052;14.544;2023-04-01T15:17:53;2.25;;;1.33;;
56181;SDS011;51963;46.052;14.544;2023-04-01T15:40:24;2.50;;;1.67;;
56181;SDS011;51963;46.052;14.544;2023-04-01T15:43:02;3.40;;;2.00;;
56181;SDS011;51963;46.052;14.544;2023-04-01T15:48:40;5.72;;;1.90;;
56181;SDS011;51963;46.052;14.544;2023-04-01T15:59:41;2.97;;;1.20;;
56181;SDS011;51963;46.052;14.544;2023-04-01T16:04:56;1.70;;;0.90;;
56181;SDS011;51963;46.052;14.544;2023-04-01T16:20:56;8.25;;;2.00;;
56181;SDS011;51963;46.052;14.544;2023-04-01T16:23:43;2.83;;;0.93;;
56181;SDS011;51963;46.052;14.544;2023-04-01T16:29:22;5.57;;;1.63;;
56181;SDS011;51963;46.052;14.544;2023-04-01T16:34:38;6.60;;;1.80;;
56181;SDS011;51963;46.052;14.544;2023-04-01T16:37:10;2.75;;;1.38;;
56181;SDS011;51963;46.052;14.544;2023-04-01T16:39:43;4.47;;;1.35;;
56181;SDS011;51963;46.052;14.544;2023-04-01T16:42:13;4.95;;;2.05;;
56181;SDS011;51963;46.052;14.544;2023-04-01T16:44:59;7.03;;;1.67;;
56181;SDS011;51963;46.052;14.544;2023-04-01T16:47:27;11.38;;;2.90;;
56181;SDS011;51963;46.052;14.544;2023-04-01T16:50:19;8.82;;;2.90;;
56181;SDS011;51963;46.052;14.544;2023-04-01T16:55:43;6.97;;;2.78;;
56181;SDS011;51963;46.052;14.544;2023-04-01T16:58:36;7.97;;;2.47;;
56181;SDS011;51963;46.052;14.544;2023-04-01T17:01:07;9.75;;;3.58;;
56181;SDS011;51963;46.052;14.544;2023-04-01T17:03:43;10.45;;;3.72;;
56181;SDS011;51963;46.052;14.544;2023-04-01T17:06:23;12.07;;;3.90;;
56181;SDS011;51963;46.052;14.544;2023-04-01T18:06:34;5.22;;;2.67;;
56181;SDS011;51963;46.052;14.544;2023-04-01T18:23:14;15.70;;;7.20;;
56181;SDS011;51963;46.052;14.544;2023-04-01T18:25:49;11.48;;;5.28;;
56181;SDS011;51963;46.052;14.544;2023-04-01T18:28:22;9.38;;;4.85;;
56181;SDS011;51963;46.052;14.544;2023-04-01T18:31:11;6.78;;;4.03;;
56181;SDS011;51963;46.052;14.544;2023-04-01T18:33:44;12.02;;;6.22;;
56181;SDS011;51963;46.052;14.544;2023-04-01T18:36:21;12.93;;;7.22;;
56181;SDS011;51963;46.052;14.544;2023-04-01T18:39:11;10.63;;;5.60;;
56181;SDS011;51963;46.052;14.544;2023-04-01T18:42:00;10.55;;;6.45;;
56181;SDS011;51963;46.052;14.544;2023-04-01T18:44:38;12.25;;;7.30;;
56181;SDS011;51963;46.052;14.544;2023-04-01T18:50:02;10.40;;;5.55;;
56181;SDS011;51963;46.052;14.544;2023-04-01T18:52:40;9.57;;;6.65;;
56181;SDS011;51963;46.052;14.544;2023-04-01T19:04:10;14.07;;;7.72;;
56181;SDS011;51963;46.052;14.544;2023-04-01T19:30:48;9.55;;;6.03;;
56181;SDS011;51963;46.052;14.544;2023-04-01T19:33:27;13.87;;;6.87;;
56181;SDS011;51963;46.052;14.544;2023-04-01T19:50:37;25.02;;;11.07;;
56181;SDS011;51963;46.052;14.544;2023-04-01T19:58:32;14.40;;;8.80;;
56181;SDS011;51963;46.052;14.544;2023-04-01T20:01:03;13.63;;;7.60;;
56181;SDS011;51963;46.052;14.544;2023-04-01T20:06:27;7.10;;;4.43;;
56181;SDS011;51963;46.052;14.544;2023-04-01T20:11:58;19.27;;;10.75;;
56181;SDS011;51963;46.052;14.544;2023-04-01T20:18:10;21.92;;;12.45;;
56181;SDS011;51963;46.052;14.544;2023-04-01T20:25:23;20.27;;;11.52;;
56181;SDS011;51963;46.052;14.544;2023-04-01T20:27:56;19.42;;;10.07;;
56181;SDS011;51963;46.052;14.544;2023-04-01T20:41:45;22.92;;;12.85;;
56181;SDS011;51963;46.052;14.544;2023-04-01T20:55:47;18.67;;;9.13;;
56181;SDS011;51963;46.052;14.544;2023-04-01T21:01:29;19.95;;;10.95;;
56181;SDS011;51963;46.052;14.544;2023-04-01T21:07:49;19.20;;;11.18;;
56181;SDS011;51963;46.052;14.544;2023-04-01T21:10:18;19.85;;;9.85;;
56181;SDS011;51963;46.052;14.544;2023-04-01T21:12:54;17.50;;;10.05;;
56181;SDS011;51963;46.052;14.544;2023-04-01T21:15:32;19.05;;;11.30;;
56181;SDS011;51963;46.052;14.544;2023-04-01T21:18:16;15.60;;;9.70;;
56181;SDS011;51963;46.052;14.544;2023-04-01T21:21:14;16.67;;;10.30;;
56181;SDS011;51963;46.052;14.544;2023-04-01T21:31:45;18.23;;;10.15;;
56181;SDS011;51963;46.052;14.544;2023-04-01T22:00:07;15.50;;;8.18;;
56181;SDS011;51963;46.052;14.544;2023-04-01T22:16:02;14.23;;;8.15;;
56181;SDS011;51963;46.052;14.544;2023-04-01T22:24:20;20.80;;;9.70;;
56181;SDS011;51963;46.052;14.544;2023-04-01T22:29:46;16.27;;;8.32;;
56181;SDS011;51963;46.052;14.544;2023-04-01T22:32:23;14.93;;;9.70;;
56181;SDS011;51963;46.052;14.544;2023-04-01T22:40:59;12.30;;;7.68;;
56181;SDS011;51963;46.052;14.544;2023-04-01T22:43:38;13.40;;;8.05;;
56181;SDS011;51963;46.052;14.544;2023-04-01T22:51:42;15.10;;;7.75;;
56181;SDS011;51963;46.052;14.544;2023-04-01T22:57:03;15.88;;;8.55;;
56181;SDS011;51963;46.052;14.544;2023-04-01T23:02:00;15.50;;;8.40;;
56181;SDS011;51963;46.052;14.544;2023-04-01T23:04:33;12.57;;;8.07;;
56181;SDS011;51963;46.052;14.544;2023-04-01T23:07:06;15.65;;;8.65;;
56181;SDS011;51963;46.052;14.544;2023-04-01T23:09:56;12.43;;;8.00;;
56181;SDS011;51963;46.052;14.544;2023-04-01T23:12:23;16.95;;;8.40;;
56181;SDS011;51963;46.052;14.544;2023-04-01T23:15:01;12.70;;;8.18;;
56181;SDS011;51963;46.052;14.544;2023-04-01T23:20:20;14.45;;;8.35;;
56181;SDS011;51963;46.052;14.544;2023-04-01T23:23:19;15.43;;;8.57;;
56181;SDS011;51963;46.052;14.544;2023-04-01T23:25:53;16.10;;;8.80;;
56181;SDS011;51963;46.052;14.544;2023-04-01T23:30:58;13.98;;;8.48;;
56181;SDS011;51963;46.052;14.544;2023-04-01T23:33:28;18.25;;;8.93;;
56181;SDS011;51963;46.052;14.544;2023-04-01T23:36:02;13.55;;;7.82;;
56181;SDS011;51963;46.052;14.544;2023-04-01T23:38:38;13.30;;;7.63;;
56181;SDS011;51963;46.052;14.544;2023-04-01T23:41:19;15.15;;;8.45;;
56181;SDS011;51963;46.052;14.544;2023-04-01T23:44:04;15.32;;;7.80;;
56181;SDS011;51963;46.052;14.544;2023-04-01T23:46:34;15.48;;;8.70;;
56181;SDS011;51963;46.052;14.544;2023-04-01T23:49:02;15.48;;;8.27;;
56181;SDS011;51963;46.052;14.544;2023-04-01T23:51:38;17.20;;;9.00;;
56181;SDS011;51963;46.052;14.544;2023-04-01T23:54:47;18.83;;;10.50;;
56181;SDS011;51963;46.052;14.544;2023-04-01T23:57:32;19.90;;;10.82;;
